Time;durP1;ratioP1;P1;durP2;ratioP2;P2;SDS_P1;SDS_P2;PMS_P1;PMS_P2;Temp;Humidity;BMP_temperature;BMP_pressure;BME280_temperature;BME280_humidity;BME280_pressure;Samples;Min_cycle;Max_cycle;Signal;HPM_P1;HPM_P2
2020/12/07 00:01:31;;;;;;;258.30;236.40;;;3.90;99.90;;;;;;5095259;28;20859;-85
2020/12/07 00:04:03;;;;;;;270.83;245.70;;;3.80;99.90;;;;;;5097143;28;20451;-86
2020/12/07 00:06:31;;;;;;;262.60;239.30;;;3.60;99.90;;;;;;5114327;28;20460;-86
2020/12/07 00:08:58;;;;;;;249.53;229.10;;;3.90;99.90;;;;;;5111973;28;20473;-86
2020/12/07 00:11:24;;;;;;;243.97;223.20;;;4.00;99.90;;;;;;5114030;28;20457;-85
2020/12/07 00:13:51;;;;;;;241.00;220.70;;;3.90;99.90;;;;;;5106523;28;20481;-85
2020/12/07 00:16:17;;;;;;;245.83;224.70;;;3.80;99.90;;;;;;5097881;28;20464;-85
2020/12/07 00:18:44;;;;;;;250.13;229.70;;;3.70;99.90;;;;;;5113605;28;21071;-85
2020/12/07 00:21:11;;;;;;;252.50;230.20;;;3.80;99.90;;;;;;5112735;28;20836;-85
2020/12/07 00:23:38;;;;;;;264.60;242.40;;;3.80;99.90;;;;;;5113392;28;20946;-85
2020/12/07 00:26:07;;;;;;;253.13;231.43;;;3.80;99.90;;;;;;5109359;28;20956;-85
2020/12/07 00:28:34;;;;;;;268.60;242.60;;;3.90;99.90;;;;;;5107596;28;20482;-85
2020/12/07 00:31:02;;;;;;;268.07;244.77;;;3.90;99.90;;;;;;5096514;28;20449;-84
2020/12/07 00:33:29;;;;;;;261.30;237.37;;;3.80;99.90;;;;;;5092869;28;20470;-85
2020/12/07 00:35:57;;;;;;;255.70;232.50;;;3.60;99.90;;;;;;5093349;28;21118;-85
2020/12/07 00:38:25;;;;;;;253.63;232.30;;;3.80;99.90;;;;;;5093198;28;20482;-85
2020/12/07 00:40:57;;;;;;;258.10;234.30;;;3.80;99.90;;;;;;5108450;28;20460;-85
2020/12/07 00:43:23;;;;;;;236.57;215.17;;;3.70;99.90;;;;;;5113614;28;20460;-84
2020/12/07 00:45:50;;;;;;;229.93;211.40;;;3.70;99.90;;;;;;5094044;28;20533;-85
2020/12/07 00:48:16;;;;;;;243.53;222.23;;;3.80;99.90;;;;;;5092350;28;20450;-85
2020/12/07 00:50:44;;;;;;;241.27;223.53;;;3.70;99.90;;;;;;5110218;28;20449;-86
2020/12/07 00:53:11;;;;;;;246.70;225.07;;;3.80;99.90;;;;;;5105841;28;20472;-86
2020/12/07 00:55:38;;;;;;;249.00;229.47;;;3.70;99.90;;;;;;5092799;28;20825;-84
2020/12/07 00:58:07;;;;;;;242.33;222.23;;;3.70;99.90;;;;;;5097533;28;20996;-86
2020/12/07 01:00:35;;;;;;;248.63;230.40;;;3.70;99.90;;;;;;5095172;28;20822;-87
2020/12/07 01:03:04;;;;;;;251.30;229.80;;;3.70;99.90;;;;;;5111741;28;20455;-86
2020/12/07 01:05:30;;;;;;;251.53;230.50;;;3.80;99.90;;;;;;5111207;28;20488;-86
2020/12/07 01:07:59;;;;;;;248.57;228.77;;;3.80;99.90;;;;;;5096005;28;20450;-85
2020/12/07 01:10:25;;;;;;;248.97;228.47;;;3.70;99.90;;;;;;5105625;28;20547;-86
2020/12/07 01:12:52;;;;;;;242.50;223.13;;;3.80;99.90;;;;;;5112962;28;20453;-86
2020/12/07 01:15:19;;;;;;;245.30;225.50;;;3.80;99.90;;;;;;5100964;28;20532;-85
2020/12/07 01:17:45;;;;;;;252.03;231.03;;;3.70;99.90;;;;;;5091464;28;20564;-87
2020/12/07 01:20:12;;;;;;;244.33;224.73;;;3.70;99.90;;;;;;5096772;28;20453;-85
2020/12/07 01:22:41;;;;;;;246.63;227.33;;;3.70;99.90;;;;;;5109330;28;20444;-85
2020/12/07 01:25:09;;;;;;;242.10;224.00;;;3.80;99.90;;;;;;5098609;28;20450;-86
2020/12/07 01:27:38;;;;;;;237.57;219.57;;;3.70;99.90;;;;;;5092553;28;20461;-85
2020/12/07 01:30:05;;;;;;;252.77;232.07;;;3.70;99.90;;;;;;5097088;28;20446;-85
2020/12/07 01:32:33;;;;;;;232.23;214.33;;;3.80;99.90;;;;;;5091540;28;20511;-85
2020/12/07 01:35:00;;;;;;;236.70;218.70;;;3.80;99.90;;;;;;5093642;28;20534;-86
2020/12/07 01:37:28;;;;;;;235.10;217.00;;;3.70;99.90;;;;;;5092532;28;20460;-86
2020/12/07 01:39:54;;;;;;;230.60;212.70;;;3.80;99.90;;;;;;5092650;28;20473;-85
2020/12/07 01:42:20;;;;;;;239.97;221.27;;;3.80;99.90;;;;;;5092671;28;20450;-86
2020/12/07 01:44:48;;;;;;;231.97;213.73;;;3.70;99.90;;;;;;5103344;28;20470;-86
2020/12/07 01:47:32;;;;;;;223.53;207.77;;;3.70;99.90;;;;;;5111756;28;20449;-86
2020/12/07 01:49:58;;;;;;;233.10;216.10;;;3.70;99.90;;;;;;5092247;28;20448;-86
2020/12/07 01:52:25;;;;;;;229.67;211.67;;;3.80;99.90;;;;;;5102877;28;20540;-87
2020/12/07 01:54:55;;;;;;;246.80;229.20;;;3.60;99.90;;;;;;5112880;28;20445;-86
2020/12/07 01:57:21;;;;;;;236.83;219.23;;;3.80;99.90;;;;;;5096383;28;20503;-86
2020/12/07 01:59:57;;;;;;;244.87;226.37;;;3.70;99.90;;;;;;5108086;28;20452;-86
2020/12/07 02:02:25;;;;;;;237.20;219.50;;;3.60;99.90;;;;;;5097064;28;20864;-86
2020/12/07 02:04:51;;;;;;;241.33;223.23;;;3.70;99.90;;;;;;5108836;28;20465;-85
2020/12/07 02:07:19;;;;;;;234.93;217.83;;;3.60;99.90;;;;;;5113655;28;20450;-84
2020/12/07 02:09:45;;;;;;;228.10;211.70;;;3.80;99.90;;;;;;5096906;28;20549;-86
2020/12/07 02:12:12;;;;;;;230.73;212.73;;;3.60;99.90;;;;;;5095418;28;20456;-86
2020/12/07 02:14:38;;;;;;;224.57;207.87;;;3.70;99.90;;;;;;5105105;28;20472;-86
2020/12/07 02:17:09;;;;;;;221.43;204.33;;;3.60;99.90;;;;;;5109413;28;20480;-87
2020/12/07 02:19:36;;;;;;;226.03;208.10;;;3.60;99.90;;;;;;5115889;28;20476;-87
2020/12/07 02:22:06;;;;;;;228.30;210.57;;;3.40;99.90;;;;;;5109765;28;20972;-86
2020/12/07 02:24:38;;;;;;;218.03;201.10;;;3.60;99.90;;;;;;5099836;28;20453;-87
2020/12/07 02:27:12;;;;;;;216.73;199.67;;;3.70;99.90;;;;;;5098190;28;20446;-88
2020/12/07 02:29:41;;;;;;;223.67;205.67;;;3.60;99.90;;;;;;5095707;28;20476;-87
2020/12/07 02:32:17;;;;;;;219.80;202.40;;;3.60;99.90;;;;;;5094258;28;20453;-87
2020/12/07 02:34:46;;;;;;;219.23;200.77;;;3.50;99.90;;;;;;5099818;28;20556;-85
2020/12/07 02:37:15;;;;;;;217.07;199.13;;;3.50;99.90;;;;;;5095262;28;20454;-86
2020/12/07 02:39:42;;;;;;;224.87;207.43;;;3.60;99.90;;;;;;5105297;28;20549;-85
2020/12/07 02:42:12;;;;;;;218.17;200.40;;;3.60;99.90;;;;;;5113139;28;20456;-87
2020/12/07 02:44:41;;;;;;;226.83;207.97;;;3.60;99.90;;;;;;5104092;28;20544;-87
2020/12/07 02:47:11;;;;;;;230.73;212.33;;;3.40;99.90;;;;;;5112760;28;20476;-86
2020/12/07 02:49:40;;;;;;;221.13;201.77;;;3.50;99.90;;;;;;5095102;28;20445;-86
2020/12/07 02:52:06;;;;;;;210.47;193.90;;;3.60;99.90;;;;;;5100701;28;20525;-85
2020/12/07 02:54:37;;;;;;;210.97;193.37;;;3.40;99.90;;;;;;5094934;28;20442;-85
2020/12/07 02:57:04;;;;;;;221.33;203.20;;;3.50;99.90;;;;;;5055747;28;20438;-85
2020/12/07 02:59:33;;;;;;;224.23;204.90;;;3.50;99.90;;;;;;5094551;28;20964;-86
2020/12/07 03:01:59;;;;;;;222.33;203.70;;;3.50;99.90;;;;;;5093508;28;20465;-86
2020/12/07 03:04:26;;;;;;;226.10;206.60;;;3.50;99.90;;;;;;5094376;28;20964;-87
2020/12/07 03:06:55;;;;;;;229.17;209.30;;;3.60;99.90;;;;;;5094519;28;20949;-85
2020/12/07 03:09:21;;;;;;;234.60;215.03;;;3.40;99.90;;;;;;5112506;28;20480;-85
2020/12/07 03:11:48;;;;;;;219.83;199.97;;;3.40;99.90;;;;;;5106953;28;21025;-85
2020/12/07 03:14:17;;;;;;;212.50;194.90;;;3.50;99.90;;;;;;5094665;28;20500;-85
2020/12/07 03:16:46;;;;;;;216.40;197.70;;;3.50;99.90;;;;;;5101663;28;20436;-84
2020/12/07 03:19:12;;;;;;;227.60;205.97;;;3.30;99.90;;;;;;5114782;28;20879;-85
2020/12/07 03:21:39;;;;;;;227.60;207.43;;;3.50;99.90;;;;;;5114549;28;20452;-86
2020/12/07 03:24:06;;;;;;;208.17;189.90;;;3.60;99.90;;;;;;5114676;28;20456;-86
2020/12/07 03:26:34;;;;;;;214.27;195.60;;;3.50;99.90;;;;;;5095340;28;20460;-86
2020/12/07 03:29:06;;;;;;;211.90;193.37;;;3.80;99.90;;;;;;5106036;28;20510;-86
2020/12/07 03:31:44;;;;;;;211.73;193.73;;;3.50;99.90;;;;;;5113420;28;20944;-86
2020/12/07 03:34:11;;;;;;;206.47;187.17;;;3.50;99.90;;;;;;5101419;28;20463;-85
2020/12/07 03:36:38;;;;;;;220.10;199.17;;;3.60;99.90;;;;;;5094245;28;20477;-85
2020/12/07 03:39:05;;;;;;;202.97;184.77;;;3.60;99.90;;;;;;5094321;28;20528;-86
2020/12/07 03:41:33;;;;;;;220.37;199.77;;;3.50;99.90;;;;;;5093909;28;20446;-86
2020/12/07 03:43:59;;;;;;;214.27;195.23;;;3.50;99.90;;;;;;5103671;28;20453;-86
2020/12/07 03:46:34;;;;;;;222.60;202.90;;;3.60;99.90;;;;;;5113313;28;20455;-85
2020/12/07 03:49:06;;;;;;;210.93;192.20;;;3.40;99.90;;;;;;5104766;28;20513;-85
2020/12/07 03:51:41;;;;;;;220.33;200.87;;;3.50;99.90;;;;;;5097175;28;20456;-86
2020/12/07 03:54:17;;;;;;;217.20;198.47;;;3.40;99.90;;;;;;5077877;28;20440;-86
2020/12/07 03:56:45;;;;;;;223.17;203.73;;;3.80;99.90;;;;;;5112490;28;20782;-87
2020/12/07 03:59:13;;;;;;;206.90;189.10;;;3.60;99.90;;;;;;5116649;28;20506;-88
2020/12/07 04:01:43;;;;;;;220.17;200.53;;;3.60;99.90;;;;;;5109701;28;20537;-87
2020/12/07 04:04:13;;;;;;;223.10;202.90;;;3.60;99.90;;;;;;5093626;28;20457;-87
2020/12/07 04:06:41;;;;;;;217.37;198.47;;;3.50;99.90;;;;;;5093764;28;20501;-89
2020/12/07 04:09:11;;;;;;;217.83;197.93;;;3.50;99.90;;;;;;5093901;28;20503;-87
2020/12/07 04:11:48;;;;;;;203.30;186.03;;;3.50;99.90;;;;;;5095479;28;20450;-85
2020/12/07 04:14:17;;;;;;;210.13;190.60;;;3.50;99.90;;;;;;5113693;28;20961;-87
2020/12/07 04:16:46;;;;;;;200.07;182.63;;;3.50;99.90;;;;;;5110299;28;20448;-87
2020/12/07 04:19:13;;;;;;;199.43;181.17;;;3.40;99.90;;;;;;5093142;28;20488;-85
2020/12/07 04:21:39;;;;;;;201.93;183.97;;;3.50;99.90;;;;;;5112467;28;20455;-87
2020/12/07 04:24:09;;;;;;;208.23;190.13;;;3.70;99.90;;;;;;5113800;28;20448;-87
2020/12/07 04:26:37;;;;;;;195.60;178.87;;;3.60;99.90;;;;;;5094703;28;20457;-85
2020/12/07 04:29:07;;;;;;;190.20;173.97;;;3.70;99.90;;;;;;5093385;28;20453;-86
2020/12/07 04:31:38;;;;;;;190.73;173.83;;;3.70;99.90;;;;;;5109716;28;20517;-87
2020/12/07 04:34:11;;;;;;;197.43;178.57;;;3.40;99.90;;;;;;5113520;28;20448;-86
2020/12/07 04:36:40;;;;;;;197.93;178.93;;;3.60;99.90;;;;;;5095877;28;20479;-86
2020/12/07 04:39:07;;;;;;;173.23;158.13;;;3.50;99.90;;;;;;5093055;28;20486;-87
2020/12/07 04:41:37;;;;;;;188.33;171.53;;;3.60;99.90;;;;;;5109321;28;20480;-87
2020/12/07 04:44:05;;;;;;;195.27;177.47;;;3.60;99.90;;;;;;5113512;28;20451;-88
2020/12/07 04:46:35;;;;;;;193.20;176.00;;;3.60;99.90;;;;;;5098615;28;20465;-85
2020/12/07 04:49:03;;;;;;;185.03;168.90;;;3.60;99.90;;;;;;5113551;28;20497;-86
2020/12/07 04:51:33;;;;;;;195.70;178.20;;;3.50;99.90;;;;;;5098014;28;20528;-85
2020/12/07 04:54:01;;;;;;;184.10;167.73;;;3.60;99.90;;;;;;5093168;28;20449;-87
2020/12/07 04:56:28;;;;;;;189.50;173.50;;;3.70;99.90;;;;;;5106755;28;20441;-86
2020/12/07 04:58:57;;;;;;;189.47;172.77;;;3.60;99.90;;;;;;5113416;28;20568;-85
2020/12/07 05:01:36;;;;;;;199.13;181.83;;;3.80;99.90;;;;;;5099011;28;20454;-86
2020/12/07 05:04:03;;;;;;;194.57;177.77;;;3.30;99.90;;;;;;5092831;28;20453;-87
2020/12/07 05:06:39;;;;;;;188.13;171.23;;;3.50;99.90;;;;;;5105934;28;20540;-86
2020/12/07 05:09:05;;;;;;;189.70;173.63;;;3.50;99.90;;;;;;5114719;28;20497;-86
2020/12/07 05:11:32;;;;;;;193.40;176.10;;;3.50;99.90;;;;;;5099985;28;20450;-86
2020/12/07 05:14:04;;;;;;;195.57;177.87;;;3.70;99.90;;;;;;5092792;28;20533;-86
2020/12/07 05:16:35;;;;;;;190.57;172.60;;;3.70;99.90;;;;;;5095917;28;20810;-86
2020/12/07 05:19:08;;;;;;;194.27;177.70;;;3.60;99.90;;;;;;5092812;28;20481;-85
2020/12/07 05:21:38;;;;;;;178.07;163.87;;;3.50;99.90;;;;;;5093158;28;20499;-87
2020/12/07 05:24:05;;;;;;;171.17;157.27;;;3.50;99.90;;;;;;5092470;28;20929;-85
2020/12/07 05:26:40;;;;;;;175.23;158.57;;;3.60;99.90;;;;;;5108328;28;20449;-86
2020/12/07 05:29:12;;;;;;;170.30;154.83;;;3.60;99.90;;;;;;5108622;28;20460;-85
2020/12/07 05:31:44;;;;;;;177.00;160.10;;;3.40;99.90;;;;;;5104219;28;20454;-86
2020/12/07 05:34:16;;;;;;;173.43;157.63;;;3.40;99.90;;;;;;5102875;28;20445;-85
2020/12/07 05:36:58;;;;;;;179.47;162.97;;;3.40;99.90;;;;;;5107313;28;20467;-86
2020/12/07 05:42:21;;;;;;;174.57;157.60;;;3.50;99.90;;;;;;5094924;28;20445;-85
2020/12/07 05:44:55;;;;;;;174.00;157.70;;;3.50;99.90;;;;;;5106931;28;20459;-86
2020/12/07 05:47:27;;;;;;;171.20;155.67;;;3.40;99.90;;;;;;5115819;28;20462;-85
2020/12/07 05:50:07;;;;;;;177.73;161.47;;;3.30;99.90;;;;;;5104804;28;20457;-86
2020/12/07 05:52:47;;;;;;;167.40;152.13;;;3.30;99.90;;;;;;5095978;28;20459;-85
2020/12/07 05:55:15;;;;;;;176.90;160.80;;;3.40;99.90;;;;;;5096434;28;20445;-85
2020/12/07 05:57:51;;;;;;;171.93;155.03;;;3.40;99.90;;;;;;5096004;28;20525;-80
2020/12/07 06:00:22;;;;;;;170.70;154.80;;;3.30;99.90;;;;;;5109182;28;20480;-85
2020/12/07 06:02:51;;;;;;;173.43;157.13;;;3.40;99.90;;;;;;5115442;28;20480;-85
2020/12/07 06:05:27;;;;;;;173.17;157.33;;;3.30;99.90;;;;;;5103233;28;21017;-85
2020/12/07 06:08:20;;;;;;;176.90;161.33;;;3.10;99.90;;;;;;5096028;28;20453;-86
2020/12/07 06:11:04;;;;;;;171.07;155.73;;;3.30;99.90;;;;;;5111864;28;21039;-85
2020/12/07 06:13:34;;;;;;;183.33;165.90;;;3.30;99.90;;;;;;5116062;28;20445;-85
2020/12/07 06:16:11;;;;;;;168.10;152.00;;;3.40;99.90;;;;;;5100337;28;20450;-85
2020/12/07 06:18:45;;;;;;;177.50;161.70;;;3.30;99.90;;;;;;5117254;28;20521;-88
2020/12/07 06:21:20;;;;;;;168.73;153.27;;;3.30;99.90;;;;;;5096718;28;20956;-85
2020/12/07 06:23:52;;;;;;;170.57;154.70;;;3.40;99.90;;;;;;5095362;28;20956;-85
2020/12/07 06:26:20;;;;;;;163.73;148.77;;;3.20;99.90;;;;;;5114590;28;20459;-86
2020/12/07 06:28:57;;;;;;;175.43;159.50;;;3.30;99.90;;;;;;5109451;28;20449;-85
2020/12/07 06:31:25;;;;;;;178.87;161.80;;;3.30;99.90;;;;;;5109510;28;20524;-89
2020/12/07 06:33:55;;;;;;;183.70;165.63;;;3.30;99.90;;;;;;5114598;28;20445;-85
2020/12/07 06:36:28;;;;;;;174.20;158.10;;;3.40;99.90;;;;;;5115382;28;20461;-86
2020/12/07 06:39:07;;;;;;;180.53;163.90;;;3.30;99.90;;;;;;5113865;28;20468;-87
2020/12/07 06:41:40;;;;;;;181.50;164.70;;;3.40;99.90;;;;;;5115586;28;20463;-88
2020/12/07 06:44:11;;;;;;;175.17;159.07;;;3.40;99.90;;;;;;5106793;28;20967;-87
2020/12/07 06:46:53;;;;;;;185.37;166.57;;;3.40;99.90;;;;;;5093932;28;20446;-88
2020/12/07 06:49:26;;;;;;;190.63;173.53;;;3.40;99.90;;;;;;5103965;28;20818;-86
2020/12/07 06:52:03;;;;;;;190.50;171.33;;;3.40;99.90;;;;;;5115289;28;20481;-88
2020/12/07 06:57:29;;;;;;;197.07;178.10;;;3.50;99.90;;;;;;5101454;28;20470;-87
2020/12/07 07:00:12;;;;;;;194.87;176.27;;;3.30;99.90;;;;;;5113013;28;20480;-86
2020/12/07 07:02:53;;;;;;;201.07;182.07;;;3.40;99.90;;;;;;5092037;28;20533;-88
2020/12/07 07:05:34;;;;;;;188.93;172.53;;;3.40;99.90;;;;;;5104568;28;20445;-86
2020/12/07 07:08:03;;;;;;;202.20;181.60;;;3.40;99.90;;;;;;5115042;28;20522;-85
2020/12/07 07:10:32;;;;;;;198.00;178.80;;;3.40;99.90;;;;;;5103325;28;20534;-84
2020/12/07 07:12:59;;;;;;;196.77;177.97;;;3.50;99.90;;;;;;5094364;28;20461;-85
2020/12/07 07:15:25;;;;;;;206.83;186.93;;;3.40;99.90;;;;;;5103774;28;20536;-88
2020/12/07 07:17:51;;;;;;;200.47;182.10;;;3.50;99.90;;;;;;5114383;28;20867;-87
2020/12/07 07:20:18;;;;;;;207.10;186.63;;;3.50;99.90;;;;;;5106939;28;20481;-89
2020/12/07 07:22:46;;;;;;;207.07;187.50;;;3.50;99.90;;;;;;5094178;28;20446;-91
2020/12/07 07:25:28;;;;;;;204.40;185.73;;;3.50;99.90;;;;;;5109530;28;20486;-86
2020/12/07 07:28:04;;;;;;;209.83;189.73;;;3.60;99.90;;;;;;5116304;28;20923;-90
2020/12/07 07:30:33;;;;;;;210.50;188.53;;;3.40;99.90;;;;;;5096912;28;20518;-87
2020/12/07 07:32:59;;;;;;;210.37;191.00;;;3.50;99.90;;;;;;5093219;28;20446;-85
2020/12/07 07:35:28;;;;;;;217.10;196.20;;;3.50;99.90;;;;;;5093887;28;20903;-87
2020/12/07 07:37:55;;;;;;;205.40;186.37;;;3.50;99.90;;;;;;5098245;28;20526;-91
2020/12/07 07:40:23;;;;;;;209.37;190.53;;;3.50;99.90;;;;;;5101455;28;20560;-87
2020/12/07 07:42:52;;;;;;;207.83;187.60;;;3.40;99.90;;;;;;5094810;28;20544;-89
2020/12/07 07:45:20;;;;;;;213.53;195.10;;;3.40;99.90;;;;;;5093916;28;20598;-88
2020/12/07 07:47:55;;;;;;;204.17;185.03;;;3.40;99.90;;;;;;5094537;28;20492;-88
2020/12/07 07:53:45;;;;;;;208.70;188.80;;;3.30;99.90;;;;;;5103202;28;20821;-88
2020/12/07 08:15:50;;;;;;;185.43;169.43;;;3.50;99.90;;;;;;5093464;28;20457;-88
2020/12/07 08:18:30;;;;;;;185.80;168.50;;;3.50;99.90;;;;;;5091898;28;20533;-86
2020/12/07 08:20:59;;;;;;;178.57;163.43;;;3.60;99.90;;;;;;5108365;28;20449;-86
2020/12/07 08:23:27;;;;;;;183.80;167.30;;;3.50;99.90;;;;;;5097391;28;20458;-87
2020/12/07 08:25:55;;;;;;;178.80;163.67;;;3.50;99.90;;;;;;5091845;28;20536;-86
2020/12/07 08:28:31;;;;;;;180.33;162.43;;;3.60;99.90;;;;;;5096509;28;20528;-86
2020/12/07 08:31:07;;;;;;;180.87;163.60;;;3.70;99.90;;;;;;5091882;28;20458;-86
2020/12/07 08:33:36;;;;;;;181.10;164.10;;;3.70;99.90;;;;;;5105802;28;20531;-85
2020/12/07 08:36:04;;;;;;;181.15;163.38;;;3.70;99.90;;;;;;5111246;28;20489;-85
2020/12/07 08:38:40;;;;;;;185.60;168.13;;;3.80;99.90;;;;;;5111615;28;20236;-85
2020/12/07 08:41:13;;;;;;;183.70;166.83;;;3.80;99.90;;;;;;5112947;28;20453;-85
2020/12/07 08:43:44;;;;;;;182.93;166.43;;;3.80;99.90;;;;;;5108890;28;20459;-85
2020/12/07 08:46:17;;;;;;;179.10;162.50;;;3.70;99.90;;;;;;5110915;28;20451;-83
2020/12/07 08:48:47;;;;;;;174.90;159.00;;;3.80;99.90;;;;;;5111211;28;20471;-84
2020/12/07 08:51:16;;;;;;;168.83;154.10;;;3.90;99.90;;;;;;5111992;28;20532;-86
2020/12/07 08:53:42;;;;;;;163.87;148.77;;;3.90;99.90;;;;;;5103658;28;20521;-84
2020/12/07 08:56:11;;;;;;;163.27;149.27;;;3.90;99.90;;;;;;5111791;28;20448;-85
2020/12/07 08:58:39;;;;;;;165.23;149.40;;;3.80;99.90;;;;;;5110596;28;20567;-85
2020/12/07 09:01:08;;;;;;;162.93;148.13;;;3.80;99.90;;;;;;5109557;28;20469;-85
2020/12/07 09:03:44;;;;;;;156.60;142.60;;;3.90;99.90;;;;;;5109058;28;20501;-86
2020/12/07 09:06:16;;;;;;;152.87;138.80;;;3.80;99.90;;;;;;5091804;28;20809;-84
2020/12/07 09:08:43;;;;;;;140.20;127.20;;;3.90;99.90;;;;;;5097336;28;20852;-84
2020/12/07 09:11:11;;;;;;;136.50;124.60;;;3.80;99.90;;;;;;5115817;27;20551;-85
2020/12/07 09:13:41;;;;;;;130.63;119.37;;;3.80;99.90;;;;;;5114737;28;20484;-84
2020/12/07 09:16:17;;;;;;;124.27;112.83;;;3.80;99.90;;;;;;5115298;28;20775;-85
2020/12/07 09:18:51;;;;;;;132.83;121.00;;;3.80;99.90;;;;;;5113791;28;20479;-84
2020/12/07 09:21:21;;;;;;;143.33;130.73;;;3.90;99.90;;;;;;5095284;28;20453;-86
2020/12/07 09:23:59;;;;;;;140.80;127.20;;;4.00;99.90;;;;;;5097116;28;20971;-85
2020/12/07 09:26:31;;;;;;;135.90;124.47;;;4.00;99.90;;;;;;5115684;28;20445;-85
2020/12/07 09:28:59;;;;;;;135.50;123.90;;;3.90;99.90;;;;;;5109332;28;20453;-85
2020/12/07 09:31:26;;;;;;;143.30;130.80;;;3.80;99.90;;;;;;5103442;28;20448;-83
2020/12/07 09:33:52;;;;;;;142.70;129.90;;;4.10;99.90;;;;;;5115125;28;20452;-84
2020/12/07 09:36:22;;;;;;;142.40;130.00;;;4.00;99.90;;;;;;5115038;28;20506;-83
2020/12/07 09:38:53;;;;;;;128.97;117.70;;;3.90;99.90;;;;;;5111441;28;20473;-83
2020/12/07 09:41:21;;;;;;;128.50;117.00;;;4.10;99.90;;;;;;5095003;28;20449;-83
2020/12/07 09:43:47;;;;;;;133.70;121.60;;;4.10;99.90;;;;;;5098331;28;20896;-81
2020/12/07 09:46:13;;;;;;;129.07;118.07;;;4.10;99.90;;;;;;5100937;28;20478;-82
2020/12/07 09:48:40;;;;;;;123.30;112.00;;;4.00;99.90;;;;;;5025514;28;20464;-82
2020/12/07 09:51:07;;;;;;;115.07;105.53;;;4.10;99.90;;;;;;5033341;28;20456;-83
2020/12/07 09:53:34;;;;;;;116.17;106.50;;;3.90;99.90;;;;;;5027588;28;20461;-83
2020/12/07 09:56:01;;;;;;;115.53;105.63;;;4.00;99.90;;;;;;5014505;28;20457;-83
2020/12/07 09:58:27;;;;;;;116.53;106.83;;;4.10;99.90;;;;;;5014382;28;20461;-82
2020/12/07 10:00:53;;;;;;;123.27;112.20;;;4.20;99.90;;;;;;5014717;28;20481;-82
2020/12/07 10:03:20;;;;;;;115.03;104.73;;;4.20;99.90;;;;;;5014010;28;20547;-81
2020/12/07 10:05:47;;;;;;;107.73;99.00;;;4.10;99.90;;;;;;5013931;28;20453;-82
2020/12/07 10:08:13;;;;;;;105.77;96.47;;;4.20;99.90;;;;;;5017453;28;21112;-82
2020/12/07 10:10:42;;;;;;;103.10;93.23;;;4.20;99.90;;;;;;5034874;28;20539;-82
2020/12/07 10:13:09;;;;;;;92.10;84.10;;;4.10;99.90;;;;;;5034930;28;20482;-82
2020/12/07 10:15:35;;;;;;;86.83;79.53;;;4.10;99.90;;;;;;5034943;28;20457;-83
2020/12/07 10:18:03;;;;;;;97.40;88.77;;;4.10;99.90;;;;;;5033600;28;20541;-82
2020/12/07 10:20:31;;;;;;;86.50;79.83;;;4.30;99.90;;;;;;5017243;28;20485;-82
2020/12/07 10:22:57;;;;;;;84.77;76.83;;;4.30;99.90;;;;;;5015002;28;20488;-83
2020/12/07 10:25:23;;;;;;;85.33;77.13;;;4.30;99.90;;;;;;5014643;28;20465;-82
2020/12/07 10:27:51;;;;;;;74.83;68.27;;;4.30;99.90;;;;;;5014645;28;20453;-83
2020/12/07 10:30:17;;;;;;;73.90;67.30;;;4.20;99.90;;;;;;5014567;28;20506;-83
2020/12/07 10:32:43;;;;;;;72.13;65.80;;;4.20;99.90;;;;;;5013446;28;20449;-82
2020/12/07 10:35:10;;;;;;;59.13;53.83;;;4.20;99.90;;;;;;5014707;28;20576;-82
2020/12/07 10:37:36;;;;;;;57.17;51.60;;;4.40;99.90;;;;;;5015084;28;20965;-83
2020/12/07 10:40:03;;;;;;;49.40;44.73;;;4.20;99.90;;;;;;5014739;28;20492;-82
2020/12/07 10:42:31;;;;;;;49.13;44.07;;;4.20;99.90;;;;;;5014863;28;20830;-83
2020/12/07 10:45:02;;;;;;;50.83;45.00;;;4.20;99.90;;;;;;5014794;28;20471;-82
2020/12/07 10:47:29;;;;;;;57.70;52.17;;;4.20;99.90;;;;;;5013429;28;20548;-82
2020/12/07 10:49:55;;;;;;;62.40;56.07;;;4.30;99.90;;;;;;5014845;28;20464;-83
2020/12/07 10:52:21;;;;;;;64.43;57.83;;;4.30;99.90;;;;;;5013151;28;20456;-83
2020/12/07 10:54:52;;;;;;;74.30;67.87;;;4.30;99.90;;;;;;5014615;28;20489;-83
2020/12/07 10:57:19;;;;;;;78.90;71.10;;;4.30;99.90;;;;;;5015125;28;20453;-83
2020/12/07 10:59:45;;;;;;;80.20;73.00;;;4.50;99.90;;;;;;5014893;28;21016;-83
2020/12/07 11:02:13;;;;;;;72.63;65.43;;;4.40;99.90;;;;;;5013116;28;20458;-82
2020/12/07 11:04:39;;;;;;;72.33;65.50;;;4.40;99.90;;;;;;5011894;28;20453;-82
2020/12/07 11:07:10;;;;;;;70.07;63.07;;;4.30;99.90;;;;;;5014748;28;20449;-83
2020/12/07 11:09:36;;;;;;;67.53;60.60;;;4.40;99.90;;;;;;5014809;28;20461;-81
2020/12/07 11:12:06;;;;;;;69.43;63.23;;;4.40;99.90;;;;;;5014652;28;20851;-83
2020/12/07 11:14:34;;;;;;;69.33;62.53;;;4.50;99.90;;;;;;5014380;28;20457;-83
2020/12/07 11:17:00;;;;;;;72.23;65.47;;;4.60;99.90;;;;;;4962628;28;20477;-83
2020/12/07 11:19:43;;;;;;;72.80;66.13;;;4.50;99.90;;;;;;5014637;28;20524;-84
2020/12/07 11:32:44;;;;;;;83.70;76.63;;;4.60;99.90;;;;;;4803355;29;20459;-83
2020/12/07 11:35:15;;;;;;;90.87;82.07;;;4.80;99.90;;;;;;4879292;29;20564;-85
2020/12/07 11:38:18;;;;;;;78.67;72.37;;;4.80;99.90;;;;;;4961914;28;20553;-83
2020/12/07 11:44:10;;;;;;;81.77;75.33;;;4.80;99.90;;;;;;4998035;28;20449;-84
2020/12/07 11:46:50;;;;;;;62.77;57.17;;;4.80;99.90;;;;;;5012741;28;20452;-85
2020/12/07 11:52:18;;;;;;;59.83;54.83;;;5.10;99.90;;;;;;4953141;28;20591;-89
2020/12/07 12:03:50;;;;;;;64.00;58.80;;;5.00;99.90;;;;;;4988980;28;20901;-87
2020/12/07 12:06:37;;;;;;;53.60;49.20;;;5.00;99.90;;;;;;4915102;29;20453;-87
2020/12/07 12:25:18;;;;;;;;;;;;;;;;;;;;;
2020/12/07 12:43:21;;;;;;;55.60;51.43;;;5.20;99.90;;;;;;5061154;22;21078;-82
2020/12/07 12:50:56;;;;;;;46.97;43.27;;;5.20;99.90;;;;;;4991651;28;20464;-83
2020/12/07 12:53:24;;;;;;;935.10;459.97;;;5.00;99.90;;;;;;4993695;28;20458;-82
2020/12/07 12:55:59;;;;;;;35.53;32.50;;;5.00;99.90;;;;;;4993041;28;20460;-82
2020/12/07 12:58:35;;;;;;;36.77;32.97;;;4.90;99.90;;;;;;4993426;28;20885;-82
2020/12/07 13:01:46;;;;;;;34.03;31.03;;;5.00;99.90;;;;;;4989859;28;20485;-83
2020/12/07 13:04:17;;;;;;;34.57;31.47;;;5.10;99.90;;;;;;4990963;28;20537;-83
2020/12/07 13:07:00;;;;;;;49.00;45.20;;;5.10;99.90;;;;;;4991745;28;20960;-83
2020/12/07 13:09:46;;;;;;;47.50;44.10;;;5.20;99.90;;;;;;4991950;28;20892;-83
2020/12/07 13:12:14;;;;;;;42.63;39.07;;;5.10;99.90;;;;;;4991632;28;20454;-83
2020/12/07 13:15:00;;;;;;;41.30;38.20;;;4.90;99.90;;;;;;4991737;28;20965;-83
2020/12/07 13:17:33;;;;;;;47.40;43.80;;;5.20;99.90;;;;;;4973990;28;20465;-83
2020/12/07 13:20:27;;;;;;;49.63;45.60;;;5.10;99.90;;;;;;4991522;28;20494;-83
2020/12/07 13:23:30;;;;;;;48.57;44.97;;;4.60;99.90;;;;;;4991559;28;20825;-83
2020/12/07 13:26:14;;;;;;;58.60;54.60;;;5.10;99.90;;;;;;4991612;28;20973;-82
2020/12/07 13:29:11;;;;;;;;;;;;;;;;;;;;;
2020/12/07 13:31:54;;;;;;;71.70;67.20;;;5.10;99.90;;;;;;4943947;28;20659;-84
2020/12/07 13:34:38;;;;;;;71.40;66.50;;;5.10;99.90;;;;;;4991596;28;20536;-83
2020/12/07 13:37:15;;;;;;;69.10;64.80;;;5.20;99.90;;;;;;4991778;28;20453;-82
2020/12/07 13:39:58;;;;;;;61.80;57.80;;;5.30;99.90;;;;;;4991937;28;20478;-83
2020/12/07 13:43:18;;;;;;;44.27;41.20;;;5.30;99.90;;;;;;4991654;28;20462;-84
2020/12/07 13:45:53;;;;;;;43.17;39.77;;;5.20;99.90;;;;;;4979196;28;20457;-84
2020/12/07 13:48:43;;;;;;;35.60;32.30;;;5.00;99.90;;;;;;4994050;28;20495;-84
2020/12/07 13:54:29;;;;;;;;;;;;;;;;;;;;;
2020/12/07 13:57:07;;;;;;;22.77;20.67;;;5.00;99.90;;;;;;4995309;28;20477;-83
2020/12/07 13:59:41;;;;;;;26.43;23.90;;;5.10;99.90;;;;;;4995668;28;20489;-84
2020/12/07 14:02:07;;;;;;;35.13;32.53;;;5.00;99.90;;;;;;4995457;28;20457;-83
2020/12/07 14:05:09;;;;;;;;;;;;;;;;;;;;;
2020/12/07 14:08:02;;;;;;;50.67;47.40;;;5.00;99.90;;;;;;4955054;28;20516;-81
2020/12/07 14:10:33;;;;;;;54.73;51.07;;;5.10;99.90;;;;;;4991796;28;20469;-83
2020/12/07 14:13:02;;;;;;;59.57;55.40;;;5.20;99.90;;;;;;4996549;28;20464;-82
2020/12/07 14:15:33;;;;;;;69.40;65.17;;;5.20;99.90;;;;;;4996356;28;20458;-82
2020/12/07 14:18:07;;;;;;;75.17;70.67;;;5.20;99.90;;;;;;4994698;28;20462;-82
2020/12/07 14:20:44;;;;;;;83.30;78.50;;;5.30;99.90;;;;;;4996040;28;20481;-82